sensor_id;sensor_type;location;lat;lon;timestamp;pressure;altitude;pressure_sealevel;temperature;humidity
64340;BME280;63709;53.258;-8.814;2023-02-22T00:01:11;101326.16;;;11.17;100.00
64340;BME280;63709;53.258;-8.814;2023-02-22T00:03:49;101321.47;;;11.20;100.00
64340;BME280;63709;53.258;-8.814;2023-02-22T00:06:16;101334.16;;;11.17;100.00
64340;BME280;63709;53.258;-8.814;2023-02-22T00:08:42;101328.91;;;11.15;100.00
64340;BME280;63709;53.258;-8.814;2023-02-22T00:11:07;101328.81;;;11.17;100.00
64340;BME280;63709;53.258;-8.814;2023-02-22T00:13:33;101327.22;;;11.14;100.00
64340;BME280;63709;53.258;-8.814;2023-02-22T00:15:59;101327.41;;;11.11;100.00
64340;BME280;63709;53.258;-8.814;2023-02-22T00:18:25;101326.91;;;11.06;100.00
64340;BME280;63709;53.258;-8.814;2023-02-22T00:20:56;101333.94;;;11.07;100.00
64340;BME280;63709;53.258;-8.814;2023-02-22T00:23:24;101334.78;;;11.07;100.00
64340;BME280;63709;53.258;-8.814;2023-02-22T00:25:50;101335.97;;;11.03;100.00
64340;BME280;63709;53.258;-8.814;2023-02-22T00:28:16;101341.72;;;10.97;100.00
64340;BME280;63709;53.258;-8.814;2023-02-22T00:30:41;101346.97;;;10.99;100.00
64340;BME280;63709;53.258;-8.814;2023-02-22T00:33:14;101345.16;;;10.99;100.00
64340;BME280;63709;53.258;-8.814;2023-02-22T00:35:39;101349.44;;;11.02;100.00
64340;BME280;63709;53.258;-8.814;2023-02-22T00:38:05;101357.66;;;10.99;100.00
64340;BME280;63709;53.258;-8.814;2023-02-22T00:40:32;101367.56;;;10.97;100.00
64340;BME280;63709;53.258;-8.814;2023-02-22T00:42:58;101367.03;;;10.92;100.00
64340;BME280;63709;53.258;-8.814;2023-02-22T00:45:24;101372.91;;;10.97;100.00
64340;BME280;63709;53.258;-8.814;2023-02-22T00:47:50;101377.28;;;10.85;100.00
64340;BME280;63709;53.258;-8.814;2023-02-22T00:50:16;101380.78;;;10.85;100.00
64340;BME280;63709;53.258;-8.814;2023-02-22T00:52:42;101383.28;;;10.88;100.00
64340;BME280;63709;53.258;-8.814;2023-02-22T00:55:08;101375.56;;;10.84;100.00
64340;BME280;63709;53.258;-8.814;2023-02-22T00:57:33;101386.13;;;10.85;100.00
64340;BME280;63709;53.258;-8.814;2023-02-22T00:59:59;101389.31;;;10.78;100.00
64340;BME280;63709;53.258;-8.814;2023-02-22T01:02:24;101400.63;;;10.69;100.00
64340;BME280;63709;53.258;-8.814;2023-02-22T01:04:51;101401.78;;;10.64;100.00
64340;BME280;63709;53.258;-8.814;2023-02-22T01:07:17;101393.81;;;10.77;100.00
64340;BME280;63709;53.258;-8.814;2023-02-22T01:09:43;101402.22;;;10.71;100.00
64340;BME280;63709;53.258;-8.814;2023-02-22T01:12:08;101412.06;;;10.71;100.00
64340;BME280;63709;53.258;-8.814;2023-02-22T01:14:33;101426.06;;;10.74;100.00
64340;BME280;63709;53.258;-8.814;2023-02-22T01:16:58;101432.78;;;10.53;100.00
64340;BME280;63709;53.258;-8.814;2023-02-22T01:19:24;101445.31;;;10.38;100.00
64340;BME280;63709;53.258;-8.814;2023-02-22T01:21:49;101445.06;;;10.00;100.00
64340;BME280;63709;53.258;-8.814;2023-02-22T01:24:15;101456.38;;;10.03;100.00
64340;BME280;63709;53.258;-8.814;2023-02-22T01:26:50;101470.31;;;9.94;100.00
64340;BME280;63709;53.258;-8.814;2023-02-22T01:29:16;101477.03;;;9.85;100.00
64340;BME280;63709;53.258;-8.814;2023-02-22T01:31:43;101482.97;;;9.90;100.00
64340;BME280;63709;53.258;-8.814;2023-02-22T01:34:15;101483.69;;;9.78;100.00
64340;BME280;63709;53.258;-8.814;2023-02-22T01:36:41;101476.28;;;9.69;100.00
64340;BME280;63709;53.258;-8.814;2023-02-22T01:39:06;101464.09;;;9.65;100.00
64340;BME280;63709;53.258;-8.814;2023-02-22T01:41:34;101457.94;;;9.49;100.00
64340;BME280;63709;53.258;-8.814;2023-02-22T01:44:15;101460.06;;;9.58;100.00
64340;BME280;63709;53.258;-8.814;2023-02-22T01:46:41;101455.47;;;9.31;100.00
64340;BME280;63709;53.258;-8.814;2023-02-22T01:49:06;101457.19;;;9.47;100.00
64340;BME280;63709;53.258;-8.814;2023-02-22T01:51:44;101454.16;;;9.38;100.00
64340;BME280;63709;53.258;-8.814;2023-02-22T01:54:12;101444.75;;;9.17;100.00
64340;BME280;63709;53.258;-8.814;2023-02-22T01:56:40;101459.16;;;9.29;100.00
64340;BME280;63709;53.258;-8.814;2023-02-22T01:59:09;101463.44;;;9.31;100.00
64340;BME280;63709;53.258;-8.814;2023-02-22T02:01:36;101461.81;;;9.29;100.00
64340;BME280;63709;53.258;-8.814;2023-02-22T02:04:03;101470.66;;;9.29;100.00
64340;BME280;63709;53.258;-8.814;2023-02-22T02:06:30;101478.06;;;9.24;100.00
64340;BME280;63709;53.258;-8.814;2023-02-22T02:09:06;101473.44;;;9.28;100.00
64340;BME280;63709;53.258;-8.814;2023-02-22T02:11:34;101484.16;;;9.26;100.00
64340;BME280;63709;53.258;-8.814;2023-02-22T02:14:00;101477.69;;;9.30;100.00
64340;BME280;63709;53.258;-8.814;2023-02-22T02:16:29;101474.09;;;9.31;100.00
64340;BME280;63709;53.258;-8.814;2023-02-22T02:18:55;101480.78;;;9.38;100.00
64340;BME280;63709;53.258;-8.814;2023-02-22T02:34:22;101477.16;;;9.39;100.00
64340;BME280;63709;53.258;-8.814;2023-02-22T02:37:02;101469.53;;;9.33;100.00
64340;BME280;63709;53.258;-8.814;2023-02-22T02:42:19;101475.31;;;9.26;100.00
64340;BME280;63709;53.258;-8.814;2023-02-22T02:47:12;101481.66;;;9.09;100.00
64340;BME280;63709;53.258;-8.814;2023-02-22T02:49:45;101478.97;;;9.09;100.00
64340;BME280;63709;53.258;-8.814;2023-02-22T02:52:14;101485.41;;;9.05;100.00
64340;BME280;63709;53.258;-8.814;2023-02-22T02:54:56;101485.94;;;8.95;100.00
64340;BME280;63709;53.258;-8.814;2023-02-22T02:57:23;101489.47;;;8.96;100.00
64340;BME280;63709;53.258;-8.814;2023-02-22T02:59:49;101496.50;;;8.97;100.00
64340;BME280;63709;53.258;-8.814;2023-02-22T03:05:27;101490.50;;;8.93;100.00
64340;BME280;63709;53.258;-8.814;2023-02-22T03:18:06;101494.72;;;8.98;100.00
64340;BME280;63709;53.258;-8.814;2023-02-22T03:20:57;101510.75;;;8.96;100.00
64340;BME280;63709;53.258;-8.814;2023-02-22T03:23:23;101506.28;;;8.96;100.00
64340;BME280;63709;53.258;-8.814;2023-02-22T03:26:06;101521.50;;;8.94;100.00
64340;BME280;63709;53.258;-8.814;2023-02-22T03:28:34;101535.16;;;8.88;100.00
64340;BME280;63709;53.258;-8.814;2023-02-22T03:31:03;101545.22;;;8.99;100.00
64340;BME280;63709;53.258;-8.814;2023-02-22T03:33:35;101552.16;;;8.86;100.00
64340;BME280;63709;53.258;-8.814;2023-02-22T03:38:39;101562.81;;;9.02;100.00
64340;BME280;63709;53.258;-8.814;2023-02-22T03:41:06;101552.94;;;9.04;100.00
64340;BME280;63709;53.258;-8.814;2023-02-22T03:43:36;101551.72;;;8.93;100.00
64340;BME280;63709;53.258;-8.814;2023-02-22T03:46:02;101545.31;;;8.98;100.00
64340;BME280;63709;53.258;-8.814;2023-02-22T03:51:01;101556.19;;;8.93;100.00
64340;BME280;63709;53.258;-8.814;2023-02-22T03:53:29;101539.28;;;8.94;100.00
64340;BME280;63709;53.258;-8.814;2023-02-22T03:55:56;101551.81;;;8.92;100.00
64340;BME280;63709;53.258;-8.814;2023-02-22T03:58:24;101550.63;;;8.98;100.00
64340;BME280;63709;53.258;-8.814;2023-02-22T04:00:51;101546.75;;;8.87;100.00
64340;BME280;63709;53.258;-8.814;2023-02-22T04:03:18;101533.44;;;8.87;100.00
64340;BME280;63709;53.258;-8.814;2023-02-22T04:05:44;101542.03;;;8.77;100.00
64340;BME280;63709;53.258;-8.814;2023-02-22T04:08:10;101531.81;;;8.85;100.00
64340;BME280;63709;53.258;-8.814;2023-02-22T04:10:35;101532.25;;;8.77;100.00
64340;BME280;63709;53.258;-8.814;2023-02-22T04:13:03;101521.06;;;8.70;100.00
64340;BME280;63709;53.258;-8.814;2023-02-22T04:15:31;101527.88;;;8.60;100.00
64340;BME280;63709;53.258;-8.814;2023-02-22T04:17:56;101526.81;;;8.63;100.00
64340;BME280;63709;53.258;-8.814;2023-02-22T04:20:21;101534.38;;;8.55;100.00
64340;BME280;63709;53.258;-8.814;2023-02-22T04:22:50;101531.81;;;8.53;100.00
64340;BME280;63709;53.258;-8.814;2023-02-22T04:25:16;101526.50;;;8.53;100.00
64340;BME280;63709;53.258;-8.814;2023-02-22T04:27:42;101525.38;;;8.57;100.00
64340;BME280;63709;53.258;-8.814;2023-02-22T04:30:08;101524.50;;;8.41;100.00
64340;BME280;63709;53.258;-8.814;2023-02-22T04:32:34;101525.13;;;8.29;100.00
64340;BME280;63709;53.258;-8.814;2023-02-22T04:34:59;101525.53;;;8.38;100.00
64340;BME280;63709;53.258;-8.814;2023-02-22T04:37:24;101530.50;;;8.44;100.00
64340;BME280;63709;53.258;-8.814;2023-02-22T04:39:49;101524.59;;;8.39;100.00
64340;BME280;63709;53.258;-8.814;2023-02-22T04:42:15;101527.53;;;8.33;100.00
64340;BME280;63709;53.258;-8.814;2023-02-22T04:44:40;101531.31;;;8.29;100.00
64340;BME280;63709;53.258;-8.814;2023-02-22T04:47:05;101532.00;;;8.33;100.00
64340;BME280;63709;53.258;-8.814;2023-02-22T04:49:30;101524.53;;;8.23;100.00
64340;BME280;63709;53.258;-8.814;2023-02-22T04:51:56;101532.22;;;8.12;100.00
64340;BME280;63709;53.258;-8.814;2023-02-22T04:54:21;101534.50;;;8.03;100.00
64340;BME280;63709;53.258;-8.814;2023-02-22T04:56:46;101542.16;;;8.09;100.00
64340;BME280;63709;53.258;-8.814;2023-02-22T04:59:11;101539.50;;;8.09;100.00
64340;BME280;63709;53.258;-8.814;2023-02-22T05:01:37;101550.91;;;7.93;100.00
64340;BME280;63709;53.258;-8.814;2023-02-22T05:04:02;101553.38;;;7.98;100.00
64340;BME280;63709;53.258;-8.814;2023-02-22T05:06:28;101562.25;;;7.97;100.00
64340;BME280;63709;53.258;-8.814;2023-02-22T05:08:54;101563.00;;;7.83;100.00
64340;BME280;63709;53.258;-8.814;2023-02-22T05:11:20;101567.75;;;7.94;100.00
64340;BME280;63709;53.258;-8.814;2023-02-22T05:13:46;101564.69;;;7.84;100.00
64340;BME280;63709;53.258;-8.814;2023-02-22T05:16:11;101574.53;;;7.82;100.00
64340;BME280;63709;53.258;-8.814;2023-02-22T05:18:37;101573.78;;;7.80;100.00
64340;BME280;63709;53.258;-8.814;2023-02-22T05:21:02;101571.41;;;7.74;100.00
64340;BME280;63709;53.258;-8.814;2023-02-22T05:23:28;101572.28;;;7.74;100.00
64340;BME280;63709;53.258;-8.814;2023-02-22T05:25:54;101591.75;;;7.75;100.00
64340;BME280;63709;53.258;-8.814;2023-02-22T05:28:19;101592.22;;;7.66;100.00
64340;BME280;63709;53.258;-8.814;2023-02-22T05:30:44;101589.56;;;7.66;100.00
64340;BME280;63709;53.258;-8.814;2023-02-22T05:33:09;101581.03;;;7.59;100.00
64340;BME280;63709;53.258;-8.814;2023-02-22T05:35:35;101576.94;;;7.52;100.00
64340;BME280;63709;53.258;-8.814;2023-02-22T05:38:03;101581.41;;;7.51;100.00
64340;BME280;63709;53.258;-8.814;2023-02-22T05:40:29;101577.03;;;7.50;100.00
64340;BME280;63709;53.258;-8.814;2023-02-22T05:42:55;101580.47;;;7.52;100.00
64340;BME280;63709;53.258;-8.814;2023-02-22T05:45:22;101576.09;;;7.51;100.00
64340;BME280;63709;53.258;-8.814;2023-02-22T05:47:47;101578.59;;;7.55;100.00
64340;BME280;63709;53.258;-8.814;2023-02-22T05:50:14;101582.75;;;7.60;100.00
64340;BME280;63709;53.258;-8.814;2023-02-22T05:52:39;101594.78;;;7.50;100.00
64340;BME280;63709;53.258;-8.814;2023-02-22T05:55:06;101594.53;;;7.55;100.00
64340;BME280;63709;53.258;-8.814;2023-02-22T05:57:31;101596.88;;;7.43;100.00
64340;BME280;63709;53.258;-8.814;2023-02-22T05:59:56;101591.22;;;7.32;100.00
64340;BME280;63709;53.258;-8.814;2023-02-22T06:02:22;101593.88;;;7.32;100.00
64340;BME280;63709;53.258;-8.814;2023-02-22T06:04:47;101598.47;;;7.28;100.00
64340;BME280;63709;53.258;-8.814;2023-02-22T06:07:13;101605.59;;;7.28;100.00
64340;BME280;63709;53.258;-8.814;2023-02-22T06:09:38;101607.31;;;7.29;100.00
64340;BME280;63709;53.258;-8.814;2023-02-22T06:12:04;101611.84;;;7.27;100.00
64340;BME280;63709;53.258;-8.814;2023-02-22T06:14:29;101615.41;;;7.26;100.00
64340;BME280;63709;53.258;-8.814;2023-02-22T06:16:55;101606.16;;;7.35;100.00
64340;BME280;63709;53.258;-8.814;2023-02-22T06:19:21;101622.25;;;7.32;100.00
64340;BME280;63709;53.258;-8.814;2023-02-22T06:21:54;101617.34;;;7.22;100.00
64340;BME280;63709;53.258;-8.814;2023-02-22T06:24:20;101620.72;;;7.26;100.00
64340;BME280;63709;53.258;-8.814;2023-02-22T06:26:45;101615.72;;;7.20;100.00
64340;BME280;63709;53.258;-8.814;2023-02-22T06:29:11;101601.78;;;7.15;100.00
64340;BME280;63709;53.258;-8.814;2023-02-22T06:31:36;101593.84;;;7.15;100.00
64340;BME280;63709;53.258;-8.814;2023-02-22T06:34:01;101606.81;;;7.21;100.00
64340;BME280;63709;53.258;-8.814;2023-02-22T06:36:27;101608.13;;;7.12;100.00
64340;BME280;63709;53.258;-8.814;2023-02-22T06:38:54;101611.50;;;7.16;100.00
64340;BME280;63709;53.258;-8.814;2023-02-22T06:41:20;101617.16;;;7.08;100.00
64340;BME280;63709;53.258;-8.814;2023-02-22T06:43:46;101621.56;;;7.09;100.00
64340;BME280;63709;53.258;-8.814;2023-02-22T06:46:11;101629.66;;;7.06;100.00
64340;BME280;63709;53.258;-8.814;2023-02-22T06:48:37;101637.63;;;7.06;100.00
64340;BME280;63709;53.258;-8.814;2023-02-22T06:51:03;101633.53;;;6.99;100.00
64340;BME280;63709;53.258;-8.814;2023-02-22T06:53:28;101635.38;;;6.97;100.00
64340;BME280;63709;53.258;-8.814;2023-02-22T06:55:53;101638.38;;;6.89;100.00
64340;BME280;63709;53.258;-8.814;2023-02-22T06:58:19;101640.41;;;6.84;100.00
64340;BME280;63709;53.258;-8.814;2023-02-22T07:00:44;101638.38;;;6.89;100.00
64340;BME280;63709;53.258;-8.814;2023-02-22T07:03:10;101641.22;;;6.86;100.00
64340;BME280;63709;53.258;-8.814;2023-02-22T07:05:35;101647.28;;;6.88;100.00
64340;BME280;63709;53.258;-8.814;2023-02-22T07:08:02;101649.19;;;6.86;100.00
64340;BME280;63709;53.258;-8.814;2023-02-22T07:10:29;101650.94;;;6.86;100.00
64340;BME280;63709;53.258;-8.814;2023-02-22T07:12:55;101648.28;;;6.86;100.00
64340;BME280;63709;53.258;-8.814;2023-02-22T07:15:24;101645.72;;;6.84;100.00
64340;BME280;63709;53.258;-8.814;2023-02-22T07:17:50;101652.31;;;6.75;100.00
64340;BME280;63709;53.258;-8.814;2023-02-22T07:20:17;101656.31;;;6.65;100.00
64340;BME280;63709;53.258;-8.814;2023-02-22T07:22:45;101645.47;;;6.70;100.00
64340;BME280;63709;53.258;-8.814;2023-02-22T07:25:12;101647.38;;;6.68;100.00
64340;BME280;63709;53.258;-8.814;2023-02-22T07:27:39;101639.41;;;6.68;100.00
64340;BME280;63709;53.258;-8.814;2023-02-22T07:30:06;101646.41;;;6.69;100.00
64340;BME280;63709;53.258;-8.814;2023-02-22T07:32:32;101650.78;;;6.70;100.00
64340;BME280;63709;53.258;-8.814;2023-02-22T07:34:58;101657.81;;;6.71;100.00
64340;BME280;63709;53.258;-8.814;2023-02-22T07:37:24;101652.50;;;6.71;100.00
64340;BME280;63709;53.258;-8.814;2023-02-22T07:39:49;101666.56;;;6.73;100.00
64340;BME280;63709;53.258;-8.814;2023-02-22T07:42:14;101669.16;;;6.74;100.00
64340;BME280;63709;53.258;-8.814;2023-02-22T07:44:46;101685.28;;;6.70;100.00
64340;BME280;63709;53.258;-8.814;2023-02-22T07:47:12;101691.53;;;6.69;100.00
64340;BME280;63709;53.258;-8.814;2023-02-22T07:49:38;101684.50;;;6.68;100.00
64340;BME280;63709;53.258;-8.814;2023-02-22T07:52:04;101685.50;;;6.65;100.00
64340;BME280;63709;53.258;-8.814;2023-02-22T07:54:31;101695.75;;;6.73;100.00
64340;BME280;63709;53.258;-8.814;2023-02-22T07:56:57;101686.00;;;6.73;100.00
64340;BME280;63709;53.258;-8.814;2023-02-22T07:59:31;101688.16;;;6.65;100.00
64340;BME280;63709;53.258;-8.814;2023-02-22T08:01:58;101689.66;;;6.71;100.00
64340;BME280;63709;53.258;-8.814;2023-02-22T08:04:24;101688.91;;;6.67;100.00
64340;BME280;63709;53.258;-8.814;2023-02-22T08:06:51;101700.59;;;6.63;100.00
64340;BME280;63709;53.258;-8.814;2023-02-22T08:09:16;101697.69;;;6.69;100.00
64340;BME280;63709;53.258;-8.814;2023-02-22T08:11:42;101696.69;;;6.72;100.00
64340;BME280;63709;53.258;-8.814;2023-02-22T08:14:14;101701.91;;;6.73;100.00
64340;BME280;63709;53.258;-8.814;2023-02-22T08:16:41;101707.19;;;6.75;100.00
64340;BME280;63709;53.258;-8.814;2023-02-22T08:19:08;101709.88;;;6.73;100.00
64340;BME280;63709;53.258;-8.814;2023-02-22T08:21:39;101711.31;;;6.81;100.00
64340;BME280;63709;53.258;-8.814;2023-02-22T08:24:05;101711.47;;;6.77;100.00
64340;BME280;63709;53.258;-8.814;2023-02-22T08:26:30;101718.00;;;6.89;100.00
64340;BME280;63709;53.258;-8.814;2023-02-22T08:29:13;101722.09;;;6.96;100.00
64340;BME280;63709;53.258;-8.814;2023-02-22T08:31:39;101714.63;;;6.86;100.00
64340;BME280;63709;53.258;-8.814;2023-02-22T08:34:05;101713.38;;;6.94;100.00
64340;BME280;63709;53.258;-8.814;2023-02-22T08:36:32;101716.63;;;7.01;100.00
64340;BME280;63709;53.258;-8.814;2023-02-22T08:41:28;101723.88;;;7.16;100.00
64340;BME280;63709;53.258;-8.814;2023-02-22T08:43:56;101712.53;;;7.13;100.00
64340;BME280;63709;53.258;-8.814;2023-02-22T08:46:25;101729.47;;;7.29;100.00
64340;BME280;63709;53.258;-8.814;2023-02-22T08:48:52;101741.38;;;7.39;100.00
64340;BME280;63709;53.258;-8.814;2023-02-22T08:51:18;101737.41;;;7.48;100.00
64340;BME280;63709;53.258;-8.814;2023-02-22T08:53:44;101731.88;;;7.52;100.00
64340;BME280;63709;53.258;-8.814;2023-02-22T08:56:12;101731.19;;;7.68;100.00
64340;BME280;63709;53.258;-8.814;2023-02-22T08:58:39;101742.91;;;7.81;100.00
64340;BME280;63709;53.258;-8.814;2023-02-22T09:01:18;101738.72;;;7.94;100.00
64340;BME280;63709;53.258;-8.814;2023-02-22T09:03:54;101752.34;;;8.06;100.00
64340;BME280;63709;53.258;-8.814;2023-02-22T09:06:20;101747.69;;;8.28;100.00
64340;BME280;63709;53.258;-8.814;2023-02-22T09:08:46;101749.50;;;8.45;100.00
64340;BME280;63709;53.258;-8.814;2023-02-22T09:11:11;101747.34;;;8.53;100.00
64340;BME280;63709;53.258;-8.814;2023-02-22T09:13:36;101746.22;;;8.57;100.00
64340;BME280;63709;53.258;-8.814;2023-02-22T09:16:02;101750.59;;;8.58;100.00
64340;BME280;63709;53.258;-8.814;2023-02-22T09:18:27;101748.34;;;8.68;100.00
64340;BME280;63709;53.258;-8.814;2023-02-22T09:20:53;101753.88;;;8.63;100.00
64340;BME280;63709;53.258;-8.814;2023-02-22T09:23:20;101748.94;;;8.73;100.00
64340;BME280;63709;53.258;-8.814;2023-02-22T09:25:47;101758.09;;;8.85;100.00
64340;BME280;63709;53.258;-8.814;2023-02-22T09:28:12;101764.81;;;8.92;100.00
64340;BME280;63709;53.258;-8.814;2023-02-22T09:30:39;101759.25;;;8.96;100.00
64340;BME280;63709;53.258;-8.814;2023-02-22T09:33:18;101756.53;;;9.14;100.00
64340;BME280;63709;53.258;-8.814;2023-02-22T09:35:50;101762.84;;;9.29;100.00
64340;BME280;63709;53.258;-8.814;2023-02-22T09:38:16;101761.25;;;9.42;100.00
64340;BME280;63709;53.258;-8.814;2023-02-22T09:40:53;101752.03;;;9.48;100.00
64340;BME280;63709;53.258;-8.814;2023-02-22T09:46:37;101763.56;;;9.64;100.00
64340;BME280;63709;53.258;-8.814;2023-02-22T10:08:57;101793.72;;;10.12;100.00
64340;BME280;63709;53.258;-8.814;2023-02-22T10:16:47;101810.84;;;10.08;100.00
64340;BME280;63709;53.258;-8.814;2023-02-22T10:19:17;101809.28;;;10.19;100.00
64340;BME280;63709;53.258;-8.814;2023-02-22T10:24:47;101803.72;;;10.24;100.00
64340;BME280;63709;53.258;-8.814;2023-02-22T10:30:22;101800.75;;;10.45;100.00
64340;BME280;63709;53.258;-8.814;2023-02-22T10:35:38;101792.88;;;11.02;100.00
64340;BME280;63709;53.258;-8.814;2023-02-22T10:45:56;101797.66;;;11.68;100.00
64340;BME280;63709;53.258;-8.814;2023-02-22T10:48:36;101794.69;;;11.87;100.00
64340;BME280;63709;53.258;-8.814;2023-02-22T10:51:07;101802.72;;;12.14;100.00
64340;BME280;63709;53.258;-8.814;2023-02-22T10:53:33;101802.19;;;12.22;100.00
64340;BME280;63709;53.258;-8.814;2023-02-22T10:56:21;101796.38;;;12.15;100.00
64340;BME280;63709;53.258;-8.814;2023-02-22T10:58:57;101800.69;;;12.18;100.00
64340;BME280;63709;53.258;-8.814;2023-02-22T11:01:34;101801.16;;;12.24;100.00
64340;BME280;63709;53.258;-8.814;2023-02-22T11:04:01;101808.00;;;12.28;100.00
64340;BME280;63709;53.258;-8.814;2023-02-22T11:06:29;101796.38;;;12.15;100.00
64340;BME280;63709;53.258;-8.814;2023-02-22T11:11:37;101799.72;;;11.92;100.00
64340;BME280;63709;53.258;-8.814;2023-02-22T11:16:44;101806.88;;;11.91;100.00
64340;BME280;63709;53.258;-8.814;2023-02-22T11:21:38;101817.91;;;11.44;100.00
64340;BME280;63709;53.258;-8.814;2023-02-22T11:24:10;101818.00;;;11.42;100.00
64340;BME280;63709;53.258;-8.814;2023-02-22T11:26:43;101824.78;;;11.48;100.00
64340;BME280;63709;53.258;-8.814;2023-02-22T11:32:09;101843.19;;;11.38;100.00
64340;BME280;63709;53.258;-8.814;2023-02-22T11:34:37;101849.41;;;11.24;100.00
64340;BME280;63709;53.258;-8.814;2023-02-22T11:42:23;101860.84;;;11.26;100.00
64340;BME280;63709;53.258;-8.814;2023-02-22T11:44:52;101863.50;;;11.12;100.00
64340;BME280;63709;53.258;-8.814;2023-02-22T11:47:31;101863.91;;;11.34;100.00
64340;BME280;63709;53.258;-8.814;2023-02-22T11:50:01;101867.16;;;11.39;100.00
64340;BME280;63709;53.258;-8.814;2023-02-22T11:52:29;101869.19;;;11.50;100.00
64340;BME280;63709;53.258;-8.814;2023-02-22T12:03:38;101851.78;;;12.00;100.00
64340;BME280;63709;53.258;-8.814;2023-02-22T12:06:13;101851.88;;;11.99;100.00
64340;BME280;63709;53.258;-8.814;2023-02-22T12:19:46;101869.78;;;11.84;100.00
64340;BME280;63709;53.258;-8.814;2023-02-22T12:22:21;101875.38;;;11.79;100.00
64340;BME280;63709;53.258;-8.814;2023-02-22T12:30:04;101891.31;;;11.52;100.00
64340;BME280;63709;53.258;-8.814;2023-02-22T12:35:03;101898.59;;;11.65;100.00
64340;BME280;63709;53.258;-8.814;2023-02-22T12:37:38;101899.94;;;11.72;100.00
64340;BME280;63709;53.258;-8.814;2023-02-22T12:40:13;101911.28;;;11.75;100.00
64340;BME280;63709;53.258;-8.814;2023-02-22T12:45:15;101913.22;;;11.73;100.00
64340;BME280;63709;53.258;-8.814;2023-02-22T12:47:51;101913.56;;;11.67;100.00
64340;BME280;63709;53.258;-8.814;2023-02-22T12:50:20;101915.69;;;11.76;100.00
64340;BME280;63709;53.258;-8.814;2023-02-22T12:55:39;101929.84;;;11.93;100.00
64340;BME280;63709;53.258;-8.814;2023-02-22T13:06:14;101931.38;;;12.11;100.00
64340;BME280;63709;53.258;-8.814;2023-02-22T13:13:44;101925.13;;;12.25;100.00
64340;BME280;63709;53.258;-8.814;2023-02-22T13:26:12;101946.63;;;12.38;100.00
64340;BME280;63709;53.258;-8.814;2023-02-22T13:28:43;101955.00;;;12.46;100.00
64340;BME280;63709;53.258;-8.814;2023-02-22T13:33:47;101961.25;;;12.73;100.00
64340;BME280;63709;53.258;-8.814;2023-02-22T13:51:54;101983.41;;;12.48;100.00
64340;BME280;63709;53.258;-8.814;2023-02-22T13:56:59;101989.06;;;12.58;100.00
64340;BME280;63709;53.258;-8.814;2023-02-22T13:59:31;101985.72;;;12.40;100.00
64340;BME280;63709;53.258;-8.814;2023-02-22T14:01:57;101984.09;;;12.38;100.00
64340;BME280;63709;53.258;-8.814;2023-02-22T14:06:48;101985.25;;;12.33;100.00
64340;BME280;63709;53.258;-8.814;2023-02-22T14:09:14;101989.94;;;12.01;100.00
64340;BME280;63709;53.258;-8.814;2023-02-22T14:11:43;101988.25;;;12.00;100.00
64340;BME280;63709;53.258;-8.814;2023-02-22T14:14:09;101990.25;;;11.97;100.00
64340;BME280;63709;53.258;-8.814;2023-02-22T14:16:35;101982.88;;;12.29;100.00
64340;BME280;63709;53.258;-8.814;2023-02-22T14:19:03;101982.56;;;12.33;100.00
64340;BME280;63709;53.258;-8.814;2023-02-22T14:21:30;101988.09;;;12.45;100.00
64340;BME280;63709;53.258;-8.814;2023-02-22T14:24:04;101999.00;;;12.56;100.00
64340;BME280;63709;53.258;-8.814;2023-02-22T14:26:32;102004.28;;;12.29;100.00
64340;BME280;63709;53.258;-8.814;2023-02-22T14:28:59;102018.53;;;12.29;100.00
64340;BME280;63709;53.258;-8.814;2023-02-22T14:31:31;102015.50;;;12.07;100.00
64340;BME280;63709;53.258;-8.814;2023-02-22T14:34:07;102033.19;;;12.09;100.00
64340;BME280;63709;53.258;-8.814;2023-02-22T14:39:07;102033.69;;;11.72;100.00
64340;BME280;63709;53.258;-8.814;2023-02-22T14:41:34;102030.13;;;11.57;100.00
64340;BME280;63709;53.258;-8.814;2023-02-22T14:44:01;102041.22;;;11.35;100.00
64340;BME280;63709;53.258;-8.814;2023-02-22T14:46:28;102027.50;;;11.25;100.00
64340;BME280;63709;53.258;-8.814;2023-02-22T14:48:58;102040.22;;;11.06;100.00
64340;BME280;63709;53.258;-8.814;2023-02-22T14:51:26;102049.13;;;10.90;100.00
64340;BME280;63709;53.258;-8.814;2023-02-22T14:54:05;102045.31;;;10.95;100.00
64340;BME280;63709;53.258;-8.814;2023-02-22T14:56:39;102051.59;;;10.94;100.00
64340;BME280;63709;53.258;-8.814;2023-02-22T14:59:19;102058.00;;;10.91;100.00
64340;BME280;63709;53.258;-8.814;2023-02-22T15:01:46;102053.22;;;11.12;100.00
64340;BME280;63709;53.258;-8.814;2023-02-22T15:06:40;102051.19;;;11.47;100.00
64340;BME280;63709;53.258;-8.814;2023-02-22T15:09:07;102062.63;;;11.49;100.00
64340;BME280;63709;53.258;-8.814;2023-02-22T15:11:35;102059.34;;;11.74;100.00
64340;BME280;63709;53.258;-8.814;2023-02-22T15:14:16;102063.00;;;11.73;100.00
64340;BME280;63709;53.258;-8.814;2023-02-22T15:16:45;102053.03;;;11.91;100.00
64340;BME280;63709;53.258;-8.814;2023-02-22T15:19:11;102060.31;;;12.18;100.00
64340;BME280;63709;53.258;-8.814;2023-02-22T15:21:36;102057.94;;;12.27;100.00
64340;BME280;63709;53.258;-8.814;2023-02-22T15:24:09;102068.22;;;12.05;100.00
64340;BME280;63709;53.258;-8.814;2023-02-22T15:26:44;102061.00;;;12.21;100.00
64340;BME280;63709;53.258;-8.814;2023-02-22T15:31:36;102066.53;;;12.32;100.00
64340;BME280;63709;53.258;-8.814;2023-02-22T15:34:35;102065.50;;;12.21;100.00
64340;BME280;63709;53.258;-8.814;2023-02-22T15:36:54;102067.41;;;12.33;100.00
64340;BME280;63709;53.258;-8.814;2023-02-22T15:39:31;102069.50;;;12.14;100.00
64340;BME280;63709;53.258;-8.814;2023-02-22T15:42:02;102075.13;;;12.23;100.00
64340;BME280;63709;53.258;-8.814;2023-02-22T15:44:32;102080.88;;;12.17;100.00
64340;BME280;63709;53.258;-8.814;2023-02-22T15:46:58;102075.13;;;12.23;100.00